createdAt,value
2019-05-02T10:32:57.288Z,5.03
2019-05-02T10:37:52.220Z,4.97
2019-05-02T10:42:47.910Z,4.33
2019-05-02T10:47:43.695Z,4.40
2019-05-02T10:52:39.530Z,3.87
2019-05-02T10:57:35.286Z,4.20
2019-05-02T11:02:39.567Z,5.17
2019-05-02T11:07:37.882Z,4.47
2019-05-02T11:13:04.916Z,3.80
2019-05-02T11:18:02.304Z,3.03
2019-05-02T11:23:03.288Z,2.83
2019-05-02T11:28:05.468Z,2.73
2019-05-02T11:32:57.665Z,2.80
2019-05-02T11:37:53.444Z,2.60
2019-05-02T11:42:49.246Z,2.20
2019-05-02T11:47:45.005Z,2.63
2019-05-02T11:52:42.406Z,3.90
2019-05-02T11:57:38.421Z,2.40
2019-05-02T12:02:58.154Z,2.77
2019-05-02T12:07:53.752Z,2.50
2019-05-02T12:12:54.128Z,2.80
2019-05-02T12:17:52.391Z,2.33
2019-05-02T12:22:48.185Z,2.20
2019-05-02T12:27:43.971Z,2.20
2019-05-02T12:32:39.851Z,2.20
2019-05-02T12:37:35.707Z,2.80
2019-05-02T12:42:33.045Z,2.00
2019-05-02T12:47:42.727Z,2.17
2019-05-02T12:52:38.379Z,1.93
2019-05-02T12:57:34.148Z,2.30
2019-05-02T13:02:36.835Z,2.20
2019-05-02T13:07:32.572Z,2.00
2019-05-02T13:12:32.307Z,1.60
2019-05-02T13:17:29.474Z,1.90
2019-05-02T13:22:42.891Z,1.60
2019-05-02T13:27:44.413Z,1.80
2019-05-02T13:32:42.663Z,2.10
2019-05-02T13:37:38.835Z,2.10
2019-05-02T13:42:34.705Z,2.30
2019-05-02T13:47:32.406Z,2.60
2019-05-02T13:52:28.359Z,2.57
2019-05-02T13:57:24.529Z,3.37
2019-05-02T14:02:43.406Z,3.00
2019-05-02T14:07:42.862Z,3.97
2019-05-02T14:12:47.016Z,4.23
2019-05-02T14:17:52.345Z,4.07
2019-05-02T14:22:48.009Z,3.87
2019-05-02T14:27:47.036Z,3.77
2019-05-02T14:32:42.494Z,3.53
2019-05-02T14:37:38.529Z,3.33
2019-05-02T14:42:34.442Z,3.63
2019-05-02T14:47:32.533Z,3.23
2019-05-02T14:52:27.947Z,2.53
2019-05-02T14:57:27.058Z,2.40
2019-05-02T15:02:51.759Z,2.50
2019-05-02T15:07:47.288Z,2.43
2019-05-02T15:12:43.137Z,2.20
2019-05-02T15:17:39.011Z,2.70
2019-05-02T15:22:37.478Z,2.60
2019-05-02T15:27:41.065Z,2.40
2019-05-02T15:32:42.836Z,2.43
2019-05-02T15:37:36.537Z,2.03
2019-05-02T15:42:32.455Z,2.00
2019-05-02T15:47:28.416Z,2.43
2019-05-02T15:52:28.683Z,1.77
2019-05-02T15:57:25.052Z,1.73
2019-05-02T16:02:26.458Z,2.93
2019-05-02T16:07:22.498Z,2.87
2019-05-02T16:12:18.622Z,2.67
2019-05-02T16:17:17.686Z,2.27
2019-05-02T16:22:17.034Z,2.40
2019-05-02T16:27:16.402Z,1.67
2019-05-02T16:32:30.872Z,2.00
2019-05-02T16:37:27.801Z,1.70
2019-05-02T16:42:23.609Z,1.43
2019-05-02T16:47:21.970Z,1.70
2019-05-02T16:52:17.992Z,1.50
2019-05-02T16:57:34.843Z,2.03
2019-05-02T17:02:29.651Z,2.27
2019-05-02T17:07:46.171Z,2.30
2019-05-02T17:12:42.856Z,2.57
2019-05-02T17:17:39.781Z,2.37
2019-05-02T17:22:35.558Z,2.03
2019-05-02T17:27:32.518Z,2.57
2019-05-02T17:32:28.882Z,2.00
2019-05-02T17:37:24.930Z,2.63
2019-05-02T17:42:22.286Z,2.67
2019-05-02T17:47:18.721Z,2.50
2019-05-02T17:52:25.994Z,2.93
2019-05-02T18:02:18.042Z,2.63
2019-05-02T18:07:14.013Z,2.60
2019-05-02T18:12:12.705Z,2.67
2019-05-02T18:17:07.526Z,2.80
2019-05-02T18:22:08.289Z,3.00
2019-05-02T18:27:02.154Z,2.47
2019-05-02T18:31:58.154Z,2.60
2019-05-02T18:37:00.731Z,2.77
2019-05-02T18:41:51.974Z,2.53
2019-05-02T18:46:48.097Z,2.73
2019-05-02T18:51:48.269Z,2.50
2019-05-02T18:56:49.523Z,2.73
2019-05-02T19:01:52.657Z,2.60
2019-05-02T19:06:48.880Z,2.63
2019-05-02T19:11:45.046Z,3.20
2019-05-02T19:16:42.602Z,1.27
2019-05-02T19:21:39.558Z,1.10
2019-05-02T19:26:35.562Z,1.03
2019-05-02T19:31:46.185Z,0.70
2019-05-02T19:36:52.646Z,0.50
2019-05-02T19:42:17.005Z,0.60
2019-05-02T19:47:31.731Z,0.63
2019-05-02T19:53:04.336Z,0.47
2019-05-02T19:58:26.489Z,0.30
2019-05-02T20:04:04.397Z,0.50
2019-05-02T20:09:04.822Z,0.40
2019-05-02T20:14:12.574Z,0.60
2019-05-02T20:19:17.414Z,0.40
2019-05-02T20:24:22.539Z,0.80
2019-05-02T20:29:39.237Z,0.43
2019-05-02T20:35:06.476Z,0.60
2019-05-02T20:41:24.365Z,0.90
2019-05-02T21:04:43.343Z,0.60
2019-05-02T21:10:46.419Z,0.50
2019-05-02T21:15:53.766Z,0.60
2019-05-02T21:20:54.455Z,0.70
2019-05-02T21:25:58.131Z,0.67
2019-05-02T21:30:56.813Z,0.80
2019-05-02T21:35:58.938Z,1.10
2019-05-02T21:40:53.162Z,0.60
2019-05-02T21:45:53.707Z,1.10
2019-05-02T21:50:58.289Z,0.90
2019-05-02T21:56:14.263Z,0.77
2019-05-02T22:01:12.949Z,1.10
2019-05-02T22:06:12.383Z,1.00
2019-05-02T22:11:09.382Z,1.10
2019-05-02T22:16:12.765Z,1.03
2019-05-02T22:21:08.218Z,1.10
2019-05-02T22:26:04.058Z,1.10
2019-05-02T22:31:00.029Z,1.03
2019-05-02T22:35:55.983Z,1.10
2019-05-02T22:40:55.564Z,1.63
2019-05-02T22:45:51.310Z,1.37
2019-05-02T22:50:49.576Z,1.70
2019-05-02T22:55:45.455Z,2.67
2019-05-02T23:00:41.675Z,2.10
2019-05-02T23:05:37.651Z,1.73
2019-05-02T23:10:35.329Z,2.10
2019-05-02T23:15:32.118Z,2.13
2019-05-02T23:20:28.048Z,1.87
2019-05-02T23:25:42.566Z,2.20
2019-05-02T23:30:42.337Z,2.30
2019-05-02T23:35:38.405Z,2.40
2019-05-02T23:40:34.378Z,2.10
2019-05-02T23:45:31.613Z,2.43
2019-05-02T23:50:27.775Z,2.10
2019-05-02T23:55:23.755Z,2.27
